sensor_id;sensor_type;location;lat;lon;timestamp;temperature;humidity
9497;DHT22;4786;51.270;4.456;2023-08-06T00:00:40;16.70;99.90
9497;DHT22;4786;51.270;4.456;2023-08-06T00:03:06;16.70;99.90
9497;DHT22;4786;51.270;4.456;2023-08-06T00:05:31;16.70;99.90
9497;DHT22;4786;51.270;4.456;2023-08-06T00:07:57;16.70;99.90
9497;DHT22;4786;51.270;4.456;2023-08-06T00:10:23;16.60;99.90
9497;DHT22;4786;51.270;4.456;2023-08-06T00:12:49;16.60;99.90
9497;DHT22;4786;51.270;4.456;2023-08-06T00:15:15;16.60;99.90
9497;DHT22;4786;51.270;4.456;2023-08-06T00:17:41;16.60;99.90
9497;DHT22;4786;51.270;4.456;2023-08-06T00:20:07;16.50;99.90
9497;DHT22;4786;51.270;4.456;2023-08-06T00:22:35;16.60;99.90
9497;DHT22;4786;51.270;4.456;2023-08-06T00:25:02;16.60;99.90
9497;DHT22;4786;51.270;4.456;2023-08-06T00:27:28;16.70;99.90
9497;DHT22;4786;51.270;4.456;2023-08-06T00:29:54;16.70;99.90
9497;DHT22;4786;51.270;4.456;2023-08-06T00:32:21;16.70;99.90
9497;DHT22;4786;51.270;4.456;2023-08-06T00:34:47;16.70;99.90
9497;DHT22;4786;51.270;4.456;2023-08-06T00:37:17;16.70;99.90
9497;DHT22;4786;51.270;4.456;2023-08-06T00:39:44;16.60;99.90
9497;DHT22;4786;51.270;4.456;2023-08-06T00:42:11;16.60;99.90
9497;DHT22;4786;51.270;4.456;2023-08-06T00:44:38;16.60;99.90
9497;DHT22;4786;51.270;4.456;2023-08-06T00:47:05;16.60;99.90
9497;DHT22;4786;51.270;4.456;2023-08-06T00:49:32;16.50;99.90
9497;DHT22;4786;51.270;4.456;2023-08-06T00:51:58;16.60;99.90
9497;DHT22;4786;51.270;4.456;2023-08-06T00:54:25;16.60;99.90
9497;DHT22;4786;51.270;4.456;2023-08-06T00:56:53;16.60;99.90
9497;DHT22;4786;51.270;4.456;2023-08-06T00:59:19;16.60;99.90
9497;DHT22;4786;51.270;4.456;2023-08-06T01:01:45;16.60;99.90
9497;DHT22;4786;51.270;4.456;2023-08-06T01:04:12;16.60;99.90
9497;DHT22;4786;51.270;4.456;2023-08-06T01:06:48;16.60;99.90
9497;DHT22;4786;51.270;4.456;2023-08-06T01:15:02;16.50;99.90
9497;DHT22;4786;51.270;4.456;2023-08-06T01:17:30;16.60;99.90
9497;DHT22;4786;51.270;4.456;2023-08-06T01:19:57;16.60;99.90
9497;DHT22;4786;51.270;4.456;2023-08-06T01:22:23;16.50;99.90
9497;DHT22;4786;51.270;4.456;2023-08-06T01:24:51;16.60;99.90
9497;DHT22;4786;51.270;4.456;2023-08-06T01:27:28;16.60;99.90
9497;DHT22;4786;51.270;4.456;2023-08-06T01:30:06;16.60;99.90
9497;DHT22;4786;51.270;4.456;2023-08-06T01:32:35;16.60;99.90
9497;DHT22;4786;51.270;4.456;2023-08-06T01:35:04;16.60;99.90
9497;DHT22;4786;51.270;4.456;2023-08-06T01:37:31;16.60;99.90
9497;DHT22;4786;51.270;4.456;2023-08-06T01:39:58;16.60;99.90
9497;DHT22;4786;51.270;4.456;2023-08-06T01:42:24;16.60;99.90
9497;DHT22;4786;51.270;4.456;2023-08-06T01:44:50;16.60;99.90
9497;DHT22;4786;51.270;4.456;2023-08-06T01:47:16;16.50;99.90
9497;DHT22;4786;51.270;4.456;2023-08-06T01:49:42;16.60;99.90
9497;DHT22;4786;51.270;4.456;2023-08-06T01:52:08;16.50;99.90
9497;DHT22;4786;51.270;4.456;2023-08-06T01:54:33;16.50;99.90
9497;DHT22;4786;51.270;4.456;2023-08-06T01:56:59;16.60;99.90
9497;DHT22;4786;51.270;4.456;2023-08-06T01:59:25;16.50;99.90
9497;DHT22;4786;51.270;4.456;2023-08-06T02:01:51;16.60;99.90
9497;DHT22;4786;51.270;4.456;2023-08-06T02:04:16;16.50;99.90
9497;DHT22;4786;51.270;4.456;2023-08-06T02:06:42;16.50;99.90
9497;DHT22;4786;51.270;4.456;2023-08-06T02:09:08;16.60;99.90
9497;DHT22;4786;51.270;4.456;2023-08-06T02:11:34;16.60;99.90
9497;DHT22;4786;51.270;4.456;2023-08-06T02:14:00;16.50;99.90
9497;DHT22;4786;51.270;4.456;2023-08-06T02:16:26;16.50;99.90
9497;DHT22;4786;51.270;4.456;2023-08-06T02:18:55;16.60;99.90
9497;DHT22;4786;51.270;4.456;2023-08-06T02:21:21;16.60;99.90
9497;DHT22;4786;51.270;4.456;2023-08-06T02:23:47;16.60;99.90
9497;DHT22;4786;51.270;4.456;2023-08-06T02:26:13;16.60;99.90
9497;DHT22;4786;51.270;4.456;2023-08-06T02:28:39;16.60;99.90
9497;DHT22;4786;51.270;4.456;2023-08-06T02:31:04;16.50;99.90
9497;DHT22;4786;51.270;4.456;2023-08-06T02:33:32;16.50;99.90
9497;DHT22;4786;51.270;4.456;2023-08-06T02:36:04;16.50;99.90
9497;DHT22;4786;51.270;4.456;2023-08-06T02:38:31;16.50;99.90
9497;DHT22;4786;51.270;4.456;2023-08-06T02:40:58;16.50;99.90
9497;DHT22;4786;51.270;4.456;2023-08-06T02:43:24;16.50;99.90
9497;DHT22;4786;51.270;4.456;2023-08-06T02:45:50;16.40;99.90
9497;DHT22;4786;51.270;4.456;2023-08-06T02:48:16;16.40;99.90
9497;DHT22;4786;51.270;4.456;2023-08-06T02:50:43;16.50;99.90
9497;DHT22;4786;51.270;4.456;2023-08-06T02:53:10;16.50;99.90
9497;DHT22;4786;51.270;4.456;2023-08-06T02:55:36;16.50;99.90
9497;DHT22;4786;51.270;4.456;2023-08-06T02:58:02;16.50;99.90
9497;DHT22;4786;51.270;4.456;2023-08-06T03:00:28;16.50;99.90
9497;DHT22;4786;51.270;4.456;2023-08-06T03:02:54;16.40;99.90
9497;DHT22;4786;51.270;4.456;2023-08-06T03:05:20;16.40;99.90
9497;DHT22;4786;51.270;4.456;2023-08-06T03:07:46;16.50;99.90
9497;DHT22;4786;51.270;4.456;2023-08-06T03:10:12;16.50;99.90
9497;DHT22;4786;51.270;4.456;2023-08-06T03:12:38;16.50;99.90
9497;DHT22;4786;51.270;4.456;2023-08-06T03:15:06;16.40;99.90
9497;DHT22;4786;51.270;4.456;2023-08-06T03:17:32;16.40;99.90
9497;DHT22;4786;51.270;4.456;2023-08-06T03:19:57;16.30;99.90
9497;DHT22;4786;51.270;4.456;2023-08-06T03:22:23;16.30;99.90
9497;DHT22;4786;51.270;4.456;2023-08-06T03:24:50;16.30;99.90
9497;DHT22;4786;51.270;4.456;2023-08-06T03:27:17;16.30;99.90
9497;DHT22;4786;51.270;4.456;2023-08-06T03:29:42;16.20;99.90
9497;DHT22;4786;51.270;4.456;2023-08-06T03:32:08;16.20;99.90
9497;DHT22;4786;51.270;4.456;2023-08-06T03:34:34;16.20;99.90
9497;DHT22;4786;51.270;4.456;2023-08-06T03:37:00;16.20;99.90
9497;DHT22;4786;51.270;4.456;2023-08-06T03:39:26;16.20;99.90
9497;DHT22;4786;51.270;4.456;2023-08-06T03:41:52;16.20;99.90
9497;DHT22;4786;51.270;4.456;2023-08-06T03:44:18;16.20;99.90
9497;DHT22;4786;51.270;4.456;2023-08-06T03:46:44;16.20;99.90
9497;DHT22;4786;51.270;4.456;2023-08-06T03:49:10;16.20;99.90
9497;DHT22;4786;51.270;4.456;2023-08-06T03:51:36;16.20;99.90
9497;DHT22;4786;51.270;4.456;2023-08-06T03:54:02;16.10;99.90
9497;DHT22;4786;51.270;4.456;2023-08-06T03:56:28;16.20;99.90
9497;DHT22;4786;51.270;4.456;2023-08-06T03:58:54;16.10;99.90
9497;DHT22;4786;51.270;4.456;2023-08-06T04:01:20;16.10;99.90
9497;DHT22;4786;51.270;4.456;2023-08-06T04:03:46;16.10;99.90
9497;DHT22;4786;51.270;4.456;2023-08-06T04:06:12;16.10;99.90
9497;DHT22;4786;51.270;4.456;2023-08-06T04:08:38;16.10;99.90
9497;DHT22;4786;51.270;4.456;2023-08-06T04:11:04;16.00;99.90
9497;DHT22;4786;51.270;4.456;2023-08-06T04:13:30;16.00;99.90
9497;DHT22;4786;51.270;4.456;2023-08-06T04:16:03;16.00;99.90
9497;DHT22;4786;51.270;4.456;2023-08-06T04:18:29;16.10;99.90
9497;DHT22;4786;51.270;4.456;2023-08-06T04:20:55;16.00;99.90
9497;DHT22;4786;51.270;4.456;2023-08-06T04:23:23;16.00;99.90
9497;DHT22;4786;51.270;4.456;2023-08-06T04:25:49;15.90;99.90
9497;DHT22;4786;51.270;4.456;2023-08-06T04:28:15;15.90;99.90
9497;DHT22;4786;51.270;4.456;2023-08-06T04:30:40;15.90;99.90
9497;DHT22;4786;51.270;4.456;2023-08-06T04:33:06;15.90;99.90
9497;DHT22;4786;51.270;4.456;2023-08-06T04:35:32;15.80;99.90
9497;DHT22;4786;51.270;4.456;2023-08-06T04:37:58;15.70;99.90
9497;DHT22;4786;51.270;4.456;2023-08-06T04:40:24;15.60;99.90
9497;DHT22;4786;51.270;4.456;2023-08-06T04:42:50;15.50;99.90
9497;DHT22;4786;51.270;4.456;2023-08-06T04:45:16;15.60;99.90
9497;DHT22;4786;51.270;4.456;2023-08-06T04:47:42;15.50;99.90
9497;DHT22;4786;51.270;4.456;2023-08-06T04:50:08;15.50;99.90
9497;DHT22;4786;51.270;4.456;2023-08-06T04:52:34;15.40;99.90
9497;DHT22;4786;51.270;4.456;2023-08-06T04:55:00;15.40;99.90
9497;DHT22;4786;51.270;4.456;2023-08-06T04:57:26;15.40;99.90
9497;DHT22;4786;51.270;4.456;2023-08-06T04:59:52;15.40;99.90
9497;DHT22;4786;51.270;4.456;2023-08-06T05:02:18;15.30;99.90
9497;DHT22;4786;51.270;4.456;2023-08-06T05:04:43;15.30;99.90
9497;DHT22;4786;51.270;4.456;2023-08-06T05:07:10;15.40;99.90
9497;DHT22;4786;51.270;4.456;2023-08-06T05:09:36;15.40;99.90
9497;DHT22;4786;51.270;4.456;2023-08-06T05:12:04;15.40;99.90
9497;DHT22;4786;51.270;4.456;2023-08-06T05:14:30;15.30;99.90
9497;DHT22;4786;51.270;4.456;2023-08-06T05:16:55;15.30;99.90
9497;DHT22;4786;51.270;4.456;2023-08-06T05:19:22;15.20;99.90
9497;DHT22;4786;51.270;4.456;2023-08-06T05:21:48;15.30;99.90
9497;DHT22;4786;51.270;4.456;2023-08-06T05:24:14;15.30;99.90
9497;DHT22;4786;51.270;4.456;2023-08-06T05:26:39;15.40;99.90
9497;DHT22;4786;51.270;4.456;2023-08-06T05:29:05;15.40;99.90
9497;DHT22;4786;51.270;4.456;2023-08-06T05:31:31;15.30;99.90
9497;DHT22;4786;51.270;4.456;2023-08-06T05:33:56;15.30;99.90
9497;DHT22;4786;51.270;4.456;2023-08-06T05:36:22;15.30;99.90
9497;DHT22;4786;51.270;4.456;2023-08-06T05:38:48;15.30;99.90
9497;DHT22;4786;51.270;4.456;2023-08-06T05:41:14;15.30;99.90
9497;DHT22;4786;51.270;4.456;2023-08-06T05:43:39;15.30;99.90
9497;DHT22;4786;51.270;4.456;2023-08-06T05:46:06;15.30;99.90
9497;DHT22;4786;51.270;4.456;2023-08-06T05:48:32;15.30;99.90
9497;DHT22;4786;51.270;4.456;2023-08-06T05:50:58;15.30;99.90
9497;DHT22;4786;51.270;4.456;2023-08-06T05:53:24;15.30;99.90
9497;DHT22;4786;51.270;4.456;2023-08-06T05:55:50;15.20;99.90
9497;DHT22;4786;51.270;4.456;2023-08-06T05:58:16;15.20;99.90
9497;DHT22;4786;51.270;4.456;2023-08-06T06:00:42;15.20;99.90
9497;DHT22;4786;51.270;4.456;2023-08-06T06:03:08;15.20;99.90
9497;DHT22;4786;51.270;4.456;2023-08-06T06:05:34;15.20;99.90
9497;DHT22;4786;51.270;4.456;2023-08-06T06:08:00;15.40;99.90
9497;DHT22;4786;51.270;4.456;2023-08-06T06:10:25;15.30;99.90
9497;DHT22;4786;51.270;4.456;2023-08-06T06:12:51;15.30;99.90
9497;DHT22;4786;51.270;4.456;2023-08-06T06:15:17;15.30;99.90
9497;DHT22;4786;51.270;4.456;2023-08-06T06:17:43;15.30;99.90
9497;DHT22;4786;51.270;4.456;2023-08-06T06:20:09;15.30;99.90
9497;DHT22;4786;51.270;4.456;2023-08-06T06:22:36;15.30;99.90
9497;DHT22;4786;51.270;4.456;2023-08-06T06:25:01;15.40;99.90
9497;DHT22;4786;51.270;4.456;2023-08-06T06:27:27;15.30;99.90
9497;DHT22;4786;51.270;4.456;2023-08-06T06:29:53;15.30;99.90
9497;DHT22;4786;51.270;4.456;2023-08-06T06:32:20;15.30;99.90
9497;DHT22;4786;51.270;4.456;2023-08-06T06:34:46;15.40;99.90
9497;DHT22;4786;51.270;4.456;2023-08-06T06:37:13;15.50;99.90
9497;DHT22;4786;51.270;4.456;2023-08-06T06:39:39;15.50;99.90
9497;DHT22;4786;51.270;4.456;2023-08-06T06:42:05;15.40;99.90
9497;DHT22;4786;51.270;4.456;2023-08-06T06:44:31;15.40;99.90
9497;DHT22;4786;51.270;4.456;2023-08-06T06:46:57;15.40;99.90
9497;DHT22;4786;51.270;4.456;2023-08-06T06:49:22;15.50;99.90
9497;DHT22;4786;51.270;4.456;2023-08-06T06:51:48;15.50;99.90
9497;DHT22;4786;51.270;4.456;2023-08-06T06:54:14;15.50;99.90
9497;DHT22;4786;51.270;4.456;2023-08-06T06:56:40;15.50;99.90
9497;DHT22;4786;51.270;4.456;2023-08-06T06:59:05;15.50;99.90
9497;DHT22;4786;51.270;4.456;2023-08-06T07:01:31;15.40;99.90
9497;DHT22;4786;51.270;4.456;2023-08-06T07:03:57;15.50;99.90
9497;DHT22;4786;51.270;4.456;2023-08-06T07:06:23;15.50;99.90
9497;DHT22;4786;51.270;4.456;2023-08-06T07:08:49;15.50;99.90
9497;DHT22;4786;51.270;4.456;2023-08-06T07:11:15;15.60;99.90
9497;DHT22;4786;51.270;4.456;2023-08-06T07:13:41;15.60;99.90
9497;DHT22;4786;51.270;4.456;2023-08-06T07:16:06;15.60;99.90
9497;DHT22;4786;51.270;4.456;2023-08-06T07:18:32;15.50;99.90
9497;DHT22;4786;51.270;4.456;2023-08-06T07:20:59;15.50;99.90
9497;DHT22;4786;51.270;4.456;2023-08-06T07:23:25;15.50;99.90
9497;DHT22;4786;51.270;4.456;2023-08-06T07:25:52;15.50;99.90
9497;DHT22;4786;51.270;4.456;2023-08-06T07:28:17;15.60;99.90
9497;DHT22;4786;51.270;4.456;2023-08-06T07:30:44;15.60;99.90
9497;DHT22;4786;51.270;4.456;2023-08-06T07:33:11;15.60;99.90
9497;DHT22;4786;51.270;4.456;2023-08-06T07:35:37;15.70;99.90
9497;DHT22;4786;51.270;4.456;2023-08-06T07:38:03;15.70;99.90
9497;DHT22;4786;51.270;4.456;2023-08-06T07:40:29;15.70;99.90
9497;DHT22;4786;51.270;4.456;2023-08-06T07:42:55;15.70;99.90
9497;DHT22;4786;51.270;4.456;2023-08-06T07:45:21;15.60;99.90
9497;DHT22;4786;51.270;4.456;2023-08-06T07:47:47;15.60;99.90
9497;DHT22;4786;51.270;4.456;2023-08-06T07:50:13;15.70;99.90
9497;DHT22;4786;51.270;4.456;2023-08-06T07:52:40;15.70;99.90
9497;DHT22;4786;51.270;4.456;2023-08-06T07:55:05;15.70;99.90
9497;DHT22;4786;51.270;4.456;2023-08-06T07:57:32;15.80;99.90
9497;DHT22;4786;51.270;4.456;2023-08-06T07:59:57;15.80;99.90
9497;DHT22;4786;51.270;4.456;2023-08-06T08:02:23;15.90;99.90
9497;DHT22;4786;51.270;4.456;2023-08-06T08:04:49;15.80;99.90
9497;DHT22;4786;51.270;4.456;2023-08-06T08:07:16;15.80;99.90
9497;DHT22;4786;51.270;4.456;2023-08-06T08:09:41;15.90;99.90
9497;DHT22;4786;51.270;4.456;2023-08-06T08:12:07;16.00;99.90
9497;DHT22;4786;51.270;4.456;2023-08-06T08:14:33;15.90;99.90
9497;DHT22;4786;51.270;4.456;2023-08-06T08:17:02;15.90;99.90
9497;DHT22;4786;51.270;4.456;2023-08-06T08:19:32;15.90;99.90
9497;DHT22;4786;51.270;4.456;2023-08-06T08:21:58;15.90;99.90
9497;DHT22;4786;51.270;4.456;2023-08-06T08:24:24;15.90;99.90
9497;DHT22;4786;51.270;4.456;2023-08-06T08:26:53;16.00;99.90
9497;DHT22;4786;51.270;4.456;2023-08-06T08:29:19;15.90;99.90
9497;DHT22;4786;51.270;4.456;2023-08-06T08:31:46;15.90;99.90
9497;DHT22;4786;51.270;4.456;2023-08-06T08:34:14;16.00;99.90
9497;DHT22;4786;51.270;4.456;2023-08-06T08:36:41;16.00;99.90
9497;DHT22;4786;51.270;4.456;2023-08-06T08:39:07;16.00;99.90
9497;DHT22;4786;51.270;4.456;2023-08-06T08:41:34;15.90;99.90
9497;DHT22;4786;51.270;4.456;2023-08-06T08:44:00;16.00;99.90
9497;DHT22;4786;51.270;4.456;2023-08-06T08:46:27;16.00;99.90
9497;DHT22;4786;51.270;4.456;2023-08-06T08:48:55;16.10;99.90
9497;DHT22;4786;51.270;4.456;2023-08-06T08:51:23;16.10;99.90
9497;DHT22;4786;51.270;4.456;2023-08-06T08:53:50;16.10;99.90
9497;DHT22;4786;51.270;4.456;2023-08-06T08:56:19;16.10;99.90
9497;DHT22;4786;51.270;4.456;2023-08-06T08:58:45;16.10;99.90
9497;DHT22;4786;51.270;4.456;2023-08-06T09:01:11;16.00;99.90
9497;DHT22;4786;51.270;4.456;2023-08-06T09:03:37;16.00;99.90
9497;DHT22;4786;51.270;4.456;2023-08-06T09:06:05;16.00;99.90
9497;DHT22;4786;51.270;4.456;2023-08-06T09:08:36;16.00;99.90
9497;DHT22;4786;51.270;4.456;2023-08-06T09:11:04;16.10;99.90
9497;DHT22;4786;51.270;4.456;2023-08-06T09:13:31;16.00;99.90
9497;DHT22;4786;51.270;4.456;2023-08-06T09:15:57;16.00;99.90
9497;DHT22;4786;51.270;4.456;2023-08-06T09:18:26;16.00;99.90
9497;DHT22;4786;51.270;4.456;2023-08-06T09:20:56;16.10;99.90
9497;DHT22;4786;51.270;4.456;2023-08-06T09:23:28;16.10;99.90
9497;DHT22;4786;51.270;4.456;2023-08-06T09:25:55;16.10;99.90
9497;DHT22;4786;51.270;4.456;2023-08-06T09:28:21;16.10;99.90
9497;DHT22;4786;51.270;4.456;2023-08-06T09:30:48;16.10;99.90
9497;DHT22;4786;51.270;4.456;2023-08-06T09:33:18;16.20;99.90
9497;DHT22;4786;51.270;4.456;2023-08-06T09:35:46;16.20;99.90
9497;DHT22;4786;51.270;4.456;2023-08-06T09:38:12;16.20;99.90
9497;DHT22;4786;51.270;4.456;2023-08-06T09:40:39;16.30;99.90
9497;DHT22;4786;51.270;4.456;2023-08-06T09:43:06;16.20;99.90
9497;DHT22;4786;51.270;4.456;2023-08-06T09:45:36;16.40;99.90
9497;DHT22;4786;51.270;4.456;2023-08-06T09:48:07;16.40;99.90
9497;DHT22;4786;51.270;4.456;2023-08-06T09:50:35;16.50;99.90
9497;DHT22;4786;51.270;4.456;2023-08-06T09:53:03;16.60;99.90
9497;DHT22;4786;51.270;4.456;2023-08-06T09:55:30;16.60;99.90
9497;DHT22;4786;51.270;4.456;2023-08-06T09:57:56;16.60;99.90
9497;DHT22;4786;51.270;4.456;2023-08-06T10:00:23;16.50;99.90
9497;DHT22;4786;51.270;4.456;2023-08-06T10:02:49;16.60;99.90
9497;DHT22;4786;51.270;4.456;2023-08-06T10:05:17;16.50;99.90
9497;DHT22;4786;51.270;4.456;2023-08-06T10:07:44;16.40;99.90
9497;DHT22;4786;51.270;4.456;2023-08-06T10:10:10;16.30;99.90
9497;DHT22;4786;51.270;4.456;2023-08-06T10:12:40;16.30;99.90
9497;DHT22;4786;51.270;4.456;2023-08-06T10:15:11;16.30;99.90
9497;DHT22;4786;51.270;4.456;2023-08-06T10:17:39;16.20;99.90
9497;DHT22;4786;51.270;4.456;2023-08-06T10:20:07;16.20;99.90
9497;DHT22;4786;51.270;4.456;2023-08-06T10:22:34;16.30;99.90
9497;DHT22;4786;51.270;4.456;2023-08-06T10:25:02;16.40;99.90
9497;DHT22;4786;51.270;4.456;2023-08-06T10:27:37;16.40;99.90
9497;DHT22;4786;51.270;4.456;2023-08-06T10:30:30;16.40;99.90
9497;DHT22;4786;51.270;4.456;2023-08-06T10:35:45;16.40;99.90
9497;DHT22;4786;51.270;4.456;2023-08-06T10:38:15;16.40;99.90
9497;DHT22;4786;51.270;4.456;2023-08-06T10:43:33;16.60;99.90
9497;DHT22;4786;51.270;4.456;2023-08-06T10:46:03;16.60;99.90
9497;DHT22;4786;51.270;4.456;2023-08-06T10:48:37;16.60;99.90
9497;DHT22;4786;51.270;4.456;2023-08-06T10:51:04;16.70;99.90
9497;DHT22;4786;51.270;4.456;2023-08-06T10:53:30;16.70;99.90
9497;DHT22;4786;51.270;4.456;2023-08-06T10:55:56;16.80;99.90
9497;DHT22;4786;51.270;4.456;2023-08-06T10:58:22;16.90;99.90
9497;DHT22;4786;51.270;4.456;2023-08-06T11:00:49;16.80;99.90
9497;DHT22;4786;51.270;4.456;2023-08-06T11:03:15;16.70;99.90
9497;DHT22;4786;51.270;4.456;2023-08-06T11:05:41;16.60;99.90
9497;DHT22;4786;51.270;4.456;2023-08-06T11:08:46;16.70;99.90
9497;DHT22;4786;51.270;4.456;2023-08-06T11:13:37;16.60;99.90
9497;DHT22;4786;51.270;4.456;2023-08-06T11:16:04;16.70;99.90
9497;DHT22;4786;51.270;4.456;2023-08-06T11:18:32;16.70;99.90
9497;DHT22;4786;51.270;4.456;2023-08-06T11:21:01;16.60;99.90
9497;DHT22;4786;51.270;4.456;2023-08-06T11:23:28;16.70;99.90
9497;DHT22;4786;51.270;4.456;2023-08-06T11:25:56;16.70;99.90
9497;DHT22;4786;51.270;4.456;2023-08-06T11:28:22;16.80;99.90
9497;DHT22;4786;51.270;4.456;2023-08-06T11:30:49;16.80;99.90
9497;DHT22;4786;51.270;4.456;2023-08-06T11:33:23;16.80;99.90
9497;DHT22;4786;51.270;4.456;2023-08-06T11:35:51;16.80;99.90
9497;DHT22;4786;51.270;4.456;2023-08-06T11:38:17;16.70;99.90
9497;DHT22;4786;51.270;4.456;2023-08-06T11:40:47;16.50;99.90
9497;DHT22;4786;51.270;4.456;2023-08-06T11:43:13;16.60;99.90
9497;DHT22;4786;51.270;4.456;2023-08-06T11:45:40;16.60;99.90
9497;DHT22;4786;51.270;4.456;2023-08-06T11:48:07;16.60;99.90
9497;DHT22;4786;51.270;4.456;2023-08-06T11:50:37;16.70;99.90
9497;DHT22;4786;51.270;4.456;2023-08-06T11:53:27;16.70;99.90
9497;DHT22;4786;51.270;4.456;2023-08-06T11:55:53;16.70;99.90
9497;DHT22;4786;51.270;4.456;2023-08-06T11:58:19;16.60;99.90
9497;DHT22;4786;51.270;4.456;2023-08-06T12:00:45;16.40;99.90
9497;DHT22;4786;51.270;4.456;2023-08-06T12:03:12;16.40;99.90
9497;DHT22;4786;51.270;4.456;2023-08-06T12:05:37;16.40;99.90
9497;DHT22;4786;51.270;4.456;2023-08-06T12:08:04;16.30;99.90
9497;DHT22;4786;51.270;4.456;2023-08-06T12:10:31;16.30;99.90
9497;DHT22;4786;51.270;4.456;2023-08-06T12:12:58;16.50;99.90
9497;DHT22;4786;51.270;4.456;2023-08-06T12:15:23;16.50;99.90
9497;DHT22;4786;51.270;4.456;2023-08-06T12:17:50;16.50;99.90
9497;DHT22;4786;51.270;4.456;2023-08-06T12:20:16;16.50;99.90
9497;DHT22;4786;51.270;4.456;2023-08-06T12:22:42;16.50;99.90
9497;DHT22;4786;51.270;4.456;2023-08-06T12:25:12;16.50;99.90
9497;DHT22;4786;51.270;4.456;2023-08-06T12:27:40;16.60;99.90
9497;DHT22;4786;51.270;4.456;2023-08-06T12:30:07;16.50;99.90
9497;DHT22;4786;51.270;4.456;2023-08-06T12:32:33;16.50;99.90
9497;DHT22;4786;51.270;4.456;2023-08-06T12:34:59;16.40;99.90
9497;DHT22;4786;51.270;4.456;2023-08-06T12:37:26;16.30;99.90
9497;DHT22;4786;51.270;4.456;2023-08-06T12:39:53;16.30;99.90
9497;DHT22;4786;51.270;4.456;2023-08-06T12:42:19;16.20;99.90
9497;DHT22;4786;51.270;4.456;2023-08-06T12:44:45;16.20;99.90
9497;DHT22;4786;51.270;4.456;2023-08-06T12:47:10;16.10;99.90
9497;DHT22;4786;51.270;4.456;2023-08-06T12:49:37;16.00;99.90
9497;DHT22;4786;51.270;4.456;2023-08-06T12:52:02;15.90;99.90
9497;DHT22;4786;51.270;4.456;2023-08-06T12:54:31;16.00;99.90
9497;DHT22;4786;51.270;4.456;2023-08-06T12:57:02;16.00;99.90
9497;DHT22;4786;51.270;4.456;2023-08-06T12:59:28;16.10;99.90
9497;DHT22;4786;51.270;4.456;2023-08-06T13:01:54;16.10;99.90
9497;DHT22;4786;51.270;4.456;2023-08-06T13:04:20;16.00;99.90
9497;DHT22;4786;51.270;4.456;2023-08-06T13:06:46;16.00;99.90
9497;DHT22;4786;51.270;4.456;2023-08-06T13:09:13;16.10;99.90
9497;DHT22;4786;51.270;4.456;2023-08-06T13:11:40;16.10;99.90
9497;DHT22;4786;51.270;4.456;2023-08-06T13:14:10;16.10;99.90
9497;DHT22;4786;51.270;4.456;2023-08-06T13:16:38;16.20;99.90
9497;DHT22;4786;51.270;4.456;2023-08-06T13:19:04;16.10;99.90
9497;DHT22;4786;51.270;4.456;2023-08-06T13:24:01;15.90;99.90
9497;DHT22;4786;51.270;4.456;2023-08-06T13:26:28;15.80;99.90
9497;DHT22;4786;51.270;4.456;2023-08-06T13:28:56;15.90;99.90
9497;DHT22;4786;51.270;4.456;2023-08-06T13:31:22;15.80;99.90
9497;DHT22;4786;51.270;4.456;2023-08-06T13:33:47;15.80;99.90
9497;DHT22;4786;51.270;4.456;2023-08-06T13:36:18;15.70;99.90
9497;DHT22;4786;51.270;4.456;2023-08-06T13:38:43;15.70;99.90
9497;DHT22;4786;51.270;4.456;2023-08-06T13:41:09;15.60;99.90
9497;DHT22;4786;51.270;4.456;2023-08-06T13:43:36;15.70;99.90
9497;DHT22;4786;51.270;4.456;2023-08-06T13:46:01;15.80;99.90
9497;DHT22;4786;51.270;4.456;2023-08-06T13:48:27;15.70;99.90
9497;DHT22;4786;51.270;4.456;2023-08-06T13:50:56;15.70;99.90
9497;DHT22;4786;51.270;4.456;2023-08-06T13:53:22;15.70;99.90
9497;DHT22;4786;51.270;4.456;2023-08-06T13:55:48;15.70;99.90
9497;DHT22;4786;51.270;4.456;2023-08-06T13:58:14;15.60;99.90
9497;DHT22;4786;51.270;4.456;2023-08-06T14:00:40;15.60;99.90
9497;DHT22;4786;51.270;4.456;2023-08-06T14:03:06;15.70;99.90
9497;DHT22;4786;51.270;4.456;2023-08-06T14:05:32;15.60;99.90
9497;DHT22;4786;51.270;4.456;2023-08-06T14:07:58;15.60;99.90
9497;DHT22;4786;51.270;4.456;2023-08-06T14:10:24;15.70;99.90
9497;DHT22;4786;51.270;4.456;2023-08-06T14:12:50;15.60;99.90
9497;DHT22;4786;51.270;4.456;2023-08-06T14:15:17;15.70;99.90
9497;DHT22;4786;51.270;4.456;2023-08-06T14:17:43;15.60;99.90
9497;DHT22;4786;51.270;4.456;2023-08-06T14:20:09;15.60;99.90
9497;DHT22;4786;51.270;4.456;2023-08-06T14:22:37;15.60;99.90
9497;DHT22;4786;51.270;4.456;2023-08-06T14:25:03;15.60;99.90
9497;DHT22;4786;51.270;4.456;2023-08-06T14:27:29;15.60;99.90
9497;DHT22;4786;51.270;4.456;2023-08-06T14:29:55;15.70;99.90
9497;DHT22;4786;51.270;4.456;2023-08-06T14:32:21;15.70;99.90
9497;DHT22;4786;51.270;4.456;2023-08-06T14:34:47;15.70;99.90
9497;DHT22;4786;51.270;4.456;2023-08-06T14:37:13;15.80;99.90
9497;DHT22;4786;51.270;4.456;2023-08-06T14:39:39;15.90;99.90
9497;DHT22;4786;51.270;4.456;2023-08-06T14:42:05;16.00;99.90
9497;DHT22;4786;51.270;4.456;2023-08-06T14:44:31;16.10;99.90
9497;DHT22;4786;51.270;4.456;2023-08-06T14:46:57;16.20;99.90
9497;DHT22;4786;51.270;4.456;2023-08-06T14:49:27;16.30;99.90
9497;DHT22;4786;51.270;4.456;2023-08-06T14:51:52;16.30;99.90
9497;DHT22;4786;51.270;4.456;2023-08-06T14:54:18;16.30;99.90
9497;DHT22;4786;51.270;4.456;2023-08-06T14:56:44;16.30;99.90
9497;DHT22;4786;51.270;4.456;2023-08-06T14:59:10;16.30;99.90
9497;DHT22;4786;51.270;4.456;2023-08-06T15:01:35;16.20;99.90
9497;DHT22;4786;51.270;4.456;2023-08-06T15:04:01;16.20;99.90
9497;DHT22;4786;51.270;4.456;2023-08-06T15:06:28;16.10;99.90
9497;DHT22;4786;51.270;4.456;2023-08-06T15:08:54;16.00;99.90
9497;DHT22;4786;51.270;4.456;2023-08-06T15:11:23;15.90;99.90
9497;DHT22;4786;51.270;4.456;2023-08-06T15:13:49;15.80;99.90
9497;DHT22;4786;51.270;4.456;2023-08-06T15:16:16;15.80;99.90
9497;DHT22;4786;51.270;4.456;2023-08-06T15:18:43;15.80;99.90
9497;DHT22;4786;51.270;4.456;2023-08-06T15:21:11;15.90;99.90
9497;DHT22;4786;51.270;4.456;2023-08-06T15:23:37;15.90;99.90
9497;DHT22;4786;51.270;4.456;2023-08-06T15:26:03;15.80;99.90
9497;DHT22;4786;51.270;4.456;2023-08-06T15:28:29;15.80;99.90
9497;DHT22;4786;51.270;4.456;2023-08-06T15:30:55;15.80;99.90
9497;DHT22;4786;51.270;4.456;2023-08-06T15:33:22;15.70;99.90
9497;DHT22;4786;51.270;4.456;2023-08-06T15:35:48;15.60;99.90
9497;DHT22;4786;51.270;4.456;2023-08-06T15:38:14;15.70;99.90
9497;DHT22;4786;51.270;4.456;2023-08-06T15:40:41;15.70;99.90
9497;DHT22;4786;51.270;4.456;2023-08-06T15:43:08;15.70;99.90
9497;DHT22;4786;51.270;4.456;2023-08-06T15:45:34;15.70;99.90
9497;DHT22;4786;51.270;4.456;2023-08-06T15:47:59;15.70;99.90
9497;DHT22;4786;51.270;4.456;2023-08-06T15:50:26;15.60;99.90
9497;DHT22;4786;51.270;4.456;2023-08-06T15:52:51;15.60;99.90
9497;DHT22;4786;51.270;4.456;2023-08-06T15:55:17;15.60;99.90
9497;DHT22;4786;51.270;4.456;2023-08-06T15:57:44;15.40;99.90
9497;DHT22;4786;51.270;4.456;2023-08-06T16:00:10;15.40;99.90
9497;DHT22;4786;51.270;4.456;2023-08-06T16:02:37;15.50;99.90
9497;DHT22;4786;51.270;4.456;2023-08-06T16:05:04;15.50;99.90
9497;DHT22;4786;51.270;4.456;2023-08-06T16:07:30;15.50;99.90
9497;DHT22;4786;51.270;4.456;2023-08-06T16:09:56;15.60;99.90
9497;DHT22;4786;51.270;4.456;2023-08-06T16:12:22;15.60;99.90
9497;DHT22;4786;51.270;4.456;2023-08-06T16:14:51;15.70;99.90